KMGE/MGE METAR and TAF weather

Enter ICAO airport designator
Station Type Date Time Source
KMGE METAR 2019/04/25 11:56 UTC NOAA

KMGE 251156Z 12001KT 10SM BKN120 BKN200 16/14 A2995 RMK AO2A SLP136 T01590137 10177 20152 50004 $


Station Type Date Time Source
KMGE Decoded METAR 2019/04/25 11:56 UTC NOAA

Marietta / Dobbins Air Force Base, GA, United States (KMGE) 33-55N 084-31W 326M
Apr 25, 2019 - 07:56 AM EDT / 2019.04.25 1156 UTC
Wind: from the ESE (120 degrees) at 1 MPH (1 KT):0
Visibility: 10 mile(s):0
Sky conditions: mostly cloudy
Temperature: 60.6 F (15.9 C)
Dew Point: 56.7 F (13.7 C)
Relative Humidity: 86%
Pressure (altimeter): 29.95 in. Hg (1014 hPa)
Pressure tendency: 0.01 inches (0.4 hPa) higher than three hours ago
ob: KMGE 251156Z 12001KT 10SM BKN120 BKN200 16/14 A2995 RMK AO2A SLP136 T01590137 10177 20152 50004
cycle: 12

Station Type Date Time Source
KMGE TAF 2019/04/25 05:03 UTC NOAA

TAF KMGE 250500Z 2505/2611 21009KT 9999 SCT150 BKN250 QNH2989INS
BECMG 2514/2515 22010G15KT 9999 SCT050 BKN100 BKN250 QNH2990INS
BECMG 2521/2522 23012G18KT 9999 VCSH BKN040 BKN080 OVC250 QNH2985INS
BECMG 2601/2602 25012G20KT 8000 -SHRA BR SCT005 OVC020 QNH2979INS
BECMG 2608/2609 27012G18KT 8000 -RA OVC006 QNH2970INS TX26/2518Z TN15/2511Z

Example: see airport list